sensor_id;sensor_type;location;lat;lon;timestamp;P1;durP1;ratioP1;P2;durP2;ratioP2
21645;SDS011;10984;45.712;4.800;2023-04-01T00:00:55;3.75;;;1.40;;
21645;SDS011;10984;45.712;4.800;2023-04-01T00:03:22;3.67;;;1.20;;
21645;SDS011;10984;45.712;4.800;2023-04-01T00:05:48;4.43;;;0.90;;
21645;SDS011;10984;45.712;4.800;2023-04-01T00:08:14;3.83;;;1.25;;
21645;SDS011;10984;45.712;4.800;2023-04-01T00:10:40;5.05;;;0.90;;
21645;SDS011;10984;45.712;4.800;2023-04-01T00:13:06;5.45;;;1.00;;
21645;SDS011;10984;45.712;4.800;2023-04-01T00:15:32;11.15;;;2.65;;
21645;SDS011;10984;45.712;4.800;2023-04-01T00:17:58;3.72;;;1.20;;
21645;SDS011;10984;45.712;4.800;2023-04-01T00:20:24;5.28;;;1.00;;
21645;SDS011;10984;45.712;4.800;2023-04-01T00:22:50;4.90;;;1.40;;
21645;SDS011;10984;45.712;4.800;2023-04-01T00:25:16;9.85;;;1.20;;
21645;SDS011;10984;45.712;4.800;2023-04-01T00:27:42;4.82;;;1.13;;
21645;SDS011;10984;45.712;4.800;2023-04-01T00:30:08;4.00;;;0.88;;
21645;SDS011;10984;45.712;4.800;2023-04-01T00:32:34;4.05;;;1.30;;
21645;SDS011;10984;45.712;4.800;2023-04-01T00:35:00;3.38;;;0.75;;
21645;SDS011;10984;45.712;4.800;2023-04-01T00:37:27;3.95;;;1.40;;
21645;SDS011;10984;45.712;4.800;2023-04-01T00:39:53;3.40;;;1.00;;
21645;SDS011;10984;45.712;4.800;2023-04-01T00:42:18;7.68;;;1.52;;
21645;SDS011;10984;45.712;4.800;2023-04-01T00:44:45;3.78;;;1.15;;
21645;SDS011;10984;45.712;4.800;2023-04-01T00:47:29;7.35;;;1.10;;
21645;SDS011;10984;45.712;4.800;2023-04-01T00:49:55;6.25;;;1.38;;
21645;SDS011;10984;45.712;4.800;2023-04-01T00:52:22;6.07;;;0.98;;
21645;SDS011;10984;45.712;4.800;2023-04-01T00:54:51;3.55;;;1.08;;
21645;SDS011;10984;45.712;4.800;2023-04-01T00:57:23;4.93;;;0.90;;
21645;SDS011;10984;45.712;4.800;2023-04-01T00:59:54;4.20;;;1.00;;
21645;SDS011;10984;45.712;4.800;2023-04-01T01:02:20;6.20;;;1.08;;
21645;SDS011;10984;45.712;4.800;2023-04-01T01:04:47;9.18;;;1.58;;
21645;SDS011;10984;45.712;4.800;2023-04-01T01:40:51;4.05;;;0.90;;
21645;SDS011;10984;45.712;4.800;2023-04-01T01:43:22;5.70;;;1.50;;
21645;SDS011;10984;45.712;4.800;2023-04-01T01:45:52;4.05;;;1.02;;
21645;SDS011;10984;45.712;4.800;2023-04-01T01:48:21;7.72;;;1.20;;
21645;SDS011;10984;45.712;4.800;2023-04-01T01:50:48;5.38;;;1.42;;
21645;SDS011;10984;45.712;4.800;2023-04-01T01:53:14;4.50;;;0.88;;
21645;SDS011;10984;45.712;4.800;2023-04-01T01:55:41;5.68;;;1.75;;
21645;SDS011;10984;45.712;4.800;2023-04-01T02:00:40;2.70;;;0.88;;
21645;SDS011;10984;45.712;4.800;2023-04-01T02:03:09;5.22;;;0.90;;
21645;SDS011;10984;45.712;4.800;2023-04-01T02:05:37;4.97;;;1.17;;
21645;SDS011;10984;45.712;4.800;2023-04-01T02:08:08;5.10;;;1.30;;
21645;SDS011;10984;45.712;4.800;2023-04-01T02:10:35;3.95;;;1.00;;
21645;SDS011;10984;45.712;4.800;2023-04-01T02:13:06;3.72;;;1.02;;
21645;SDS011;10984;45.712;4.800;2023-04-01T02:15:40;3.15;;;1.17;;
21645;SDS011;10984;45.712;4.800;2023-04-01T02:18:10;6.68;;;1.45;;
21645;SDS011;10984;45.712;4.800;2023-04-01T02:20:37;2.60;;;0.95;;
21645;SDS011;10984;45.712;4.800;2023-04-01T02:23:05;8.90;;;1.33;;
21645;SDS011;10984;45.712;4.800;2023-04-01T02:25:34;8.07;;;0.80;;
21645;SDS011;10984;45.712;4.800;2023-04-01T02:28:01;5.30;;;0.77;;
21645;SDS011;10984;45.712;4.800;2023-04-01T02:30:32;3.67;;;0.60;;
21645;SDS011;10984;45.712;4.800;2023-04-01T02:33:00;2.72;;;0.80;;
21645;SDS011;10984;45.712;4.800;2023-04-01T02:35:26;2.42;;;0.50;;
21645;SDS011;10984;45.712;4.800;2023-04-01T02:37:55;5.75;;;0.90;;
21645;SDS011;10984;45.712;4.800;2023-04-01T02:40:21;2.92;;;1.13;;
21645;SDS011;10984;45.712;4.800;2023-04-01T02:42:47;4.63;;;0.88;;
21645;SDS011;10984;45.712;4.800;2023-04-01T02:45:13;5.70;;;0.90;;
21645;SDS011;10984;45.712;4.800;2023-04-01T02:47:39;7.43;;;1.38;;
21645;SDS011;10984;45.712;4.800;2023-04-01T02:50:05;5.85;;;0.77;;
21645;SDS011;10984;45.712;4.800;2023-04-01T02:52:32;2.95;;;0.50;;
21645;SDS011;10984;45.712;4.800;2023-04-01T02:54:58;2.65;;;0.90;;
21645;SDS011;10984;45.712;4.800;2023-04-01T02:57:24;5.40;;;1.13;;
21645;SDS011;10984;45.712;4.800;2023-04-01T02:59:50;4.28;;;0.90;;
21645;SDS011;10984;45.712;4.800;2023-04-01T03:02:16;2.25;;;0.50;;
21645;SDS011;10984;45.712;4.800;2023-04-01T03:04:42;4.18;;;0.63;;
21645;SDS011;10984;45.712;4.800;2023-04-01T03:07:08;4.70;;;0.75;;
21645;SDS011;10984;45.712;4.800;2023-04-01T03:09:53;4.47;;;1.08;;
21645;SDS011;10984;45.712;4.800;2023-04-01T03:12:18;2.42;;;0.40;;
21645;SDS011;10984;45.712;4.800;2023-04-01T03:14:44;4.05;;;0.85;;
21645;SDS011;10984;45.712;4.800;2023-04-01T03:17:09;1.70;;;0.60;;
21645;SDS011;10984;45.712;4.800;2023-04-01T03:19:35;2.67;;;0.52;;
21645;SDS011;10984;45.712;4.800;2023-04-01T03:22:01;2.97;;;0.40;;
21645;SDS011;10984;45.712;4.800;2023-04-01T03:24:26;4.68;;;0.90;;
21645;SDS011;10984;45.712;4.800;2023-04-01T03:26:52;4.88;;;0.88;;
21645;SDS011;10984;45.712;4.800;2023-04-01T03:29:18;2.55;;;0.57;;
21645;SDS011;10984;45.712;4.800;2023-04-01T03:31:43;2.70;;;0.60;;
21645;SDS011;10984;45.712;4.800;2023-04-01T03:34:09;3.63;;;0.50;;
21645;SDS011;10984;45.712;4.800;2023-04-01T03:36:35;2.75;;;0.43;;
21645;SDS011;10984;45.712;4.800;2023-04-01T03:39:01;3.55;;;0.63;;
21645;SDS011;10984;45.712;4.800;2023-04-01T03:41:28;2.92;;;0.73;;
21645;SDS011;10984;45.712;4.800;2023-04-01T03:43:55;2.35;;;0.35;;
21645;SDS011;10984;45.712;4.800;2023-04-01T03:46:21;1.27;;;0.50;;
21645;SDS011;10984;45.712;4.800;2023-04-01T03:48:46;4.50;;;0.63;;
21645;SDS011;10984;45.712;4.800;2023-04-01T03:51:12;3.50;;;0.77;;
21645;SDS011;10984;45.712;4.800;2023-04-01T03:53:38;5.22;;;0.70;;
21645;SDS011;10984;45.712;4.800;2023-04-01T03:58:48;4.43;;;0.90;;
21645;SDS011;10984;45.712;4.800;2023-04-01T04:03:58;1.88;;;0.70;;
21645;SDS011;10984;45.712;4.800;2023-04-01T04:06:24;2.42;;;0.60;;
21645;SDS011;10984;45.712;4.800;2023-04-01T04:08:50;2.38;;;0.45;;
21645;SDS011;10984;45.712;4.800;2023-04-01T04:11:16;2.53;;;0.50;;
21645;SDS011;10984;45.712;4.800;2023-04-01T04:13:45;1.85;;;0.30;;
21645;SDS011;10984;45.712;4.800;2023-04-01T04:16:12;2.35;;;0.63;;
21645;SDS011;10984;45.712;4.800;2023-04-01T04:18:41;5.13;;;0.98;;
21645;SDS011;10984;45.712;4.800;2023-04-01T04:21:06;2.88;;;0.60;;
21645;SDS011;10984;45.712;4.800;2023-04-01T04:23:36;2.70;;;0.50;;
21645;SDS011;10984;45.712;4.800;2023-04-01T04:28:46;2.78;;;0.75;;
21645;SDS011;10984;45.712;4.800;2023-04-01T04:31:17;1.98;;;0.63;;
21645;SDS011;10984;45.712;4.800;2023-04-01T04:33:45;1.10;;;0.25;;
21645;SDS011;10984;45.712;4.800;2023-04-01T04:36:11;3.95;;;0.60;;
21645;SDS011;10984;45.712;4.800;2023-04-01T04:38:36;2.35;;;0.50;;
21645;SDS011;10984;45.712;4.800;2023-04-01T04:41:02;6.28;;;0.70;;
21645;SDS011;10984;45.712;4.800;2023-04-01T04:43:28;2.63;;;0.40;;
21645;SDS011;10984;45.712;4.800;2023-04-01T04:45:53;2.92;;;0.55;;
21645;SDS011;10984;45.712;4.800;2023-04-01T04:48:19;9.85;;;1.90;;
21645;SDS011;10984;45.712;4.800;2023-04-01T04:50:48;4.20;;;0.93;;
21645;SDS011;10984;45.712;4.800;2023-04-01T04:53:15;1.92;;;0.50;;
21645;SDS011;10984;45.712;4.800;2023-04-01T04:55:43;3.38;;;0.43;;
21645;SDS011;10984;45.712;4.800;2023-04-01T04:58:10;4.22;;;0.40;;
21645;SDS011;10984;45.712;4.800;2023-04-01T05:00:36;2.40;;;0.95;;
21645;SDS011;10984;45.712;4.800;2023-04-01T05:03:01;2.58;;;0.68;;
21645;SDS011;10984;45.712;4.800;2023-04-01T05:05:27;5.85;;;0.70;;
21645;SDS011;10984;45.712;4.800;2023-04-01T05:07:52;2.45;;;0.60;;
21645;SDS011;10984;45.712;4.800;2023-04-01T05:10:18;4.15;;;0.40;;
21645;SDS011;10984;45.712;4.800;2023-04-01T05:12:45;5.07;;;1.02;;
21645;SDS011;10984;45.712;4.800;2023-04-01T05:15:11;4.20;;;0.80;;
21645;SDS011;10984;45.712;4.800;2023-04-01T05:17:37;2.83;;;0.60;;
21645;SDS011;10984;45.712;4.800;2023-04-01T05:20:02;2.25;;;0.50;;
21645;SDS011;10984;45.712;4.800;2023-04-01T05:22:29;5.20;;;0.50;;
21645;SDS011;10984;45.712;4.800;2023-04-01T05:24:54;1.17;;;0.50;;
21645;SDS011;10984;45.712;4.800;2023-04-01T05:27:20;4.15;;;0.50;;
21645;SDS011;10984;45.712;4.800;2023-04-01T05:29:46;5.40;;;0.60;;
21645;SDS011;10984;45.712;4.800;2023-04-01T05:32:11;3.30;;;0.55;;
21645;SDS011;10984;45.712;4.800;2023-04-01T05:34:37;2.65;;;0.55;;
21645;SDS011;10984;45.712;4.800;2023-04-01T05:37:03;3.47;;;0.75;;
21645;SDS011;10984;45.712;4.800;2023-04-01T05:39:28;1.92;;;1.02;;
21645;SDS011;10984;45.712;4.800;2023-04-01T05:41:54;4.63;;;0.75;;
21645;SDS011;10984;45.712;4.800;2023-04-01T05:44:20;4.10;;;0.75;;
21645;SDS011;10984;45.712;4.800;2023-04-01T05:46:45;2.88;;;0.90;;
21645;SDS011;10984;45.712;4.800;2023-04-01T05:49:11;1.63;;;0.43;;
21645;SDS011;10984;45.712;4.800;2023-04-01T05:51:36;4.05;;;0.90;;
21645;SDS011;10984;45.712;4.800;2023-04-01T05:54:03;3.38;;;0.65;;
21645;SDS011;10984;45.712;4.800;2023-04-01T05:56:30;2.53;;;0.80;;
21645;SDS011;10984;45.712;4.800;2023-04-01T05:58:55;2.22;;;0.77;;
21645;SDS011;10984;45.712;4.800;2023-04-01T06:01:21;2.85;;;0.75;;
21645;SDS011;10984;45.712;4.800;2023-04-01T06:03:46;4.18;;;0.98;;
21645;SDS011;10984;45.712;4.800;2023-04-01T06:06:33;5.70;;;0.70;;
21645;SDS011;10984;45.712;4.800;2023-04-01T06:20:39;4.50;;;0.90;;
21645;SDS011;10984;45.712;4.800;2023-04-01T06:50:15;1.25;;;0.43;;
21645;SDS011;10984;45.712;4.800;2023-04-01T06:58:34;3.13;;;0.50;;
21645;SDS011;10984;45.712;4.800;2023-04-01T07:01:21;4.50;;;1.00;;
21645;SDS011;10984;45.712;4.800;2023-04-01T07:03:53;3.17;;;0.40;;
21645;SDS011;10984;45.712;4.800;2023-04-01T07:12:19;4.38;;;0.80;;
21645;SDS011;10984;45.712;4.800;2023-04-01T07:14:54;3.72;;;0.55;;
21645;SDS011;10984;45.712;4.800;2023-04-01T07:17:25;4.35;;;0.75;;
21645;SDS011;10984;45.712;4.800;2023-04-01T07:28:23;2.75;;;0.52;;
21645;SDS011;10984;45.712;4.800;2023-04-01T07:31:14;4.90;;;0.63;;
21645;SDS011;10984;45.712;4.800;2023-04-01T07:36:47;1.48;;;0.52;;
21645;SDS011;10984;45.712;4.800;2023-04-01T07:39:18;4.10;;;0.80;;
21645;SDS011;10984;45.712;4.800;2023-04-01T08:05:56;2.17;;;0.60;;
21645;SDS011;10984;45.712;4.800;2023-04-01T08:23:05;2.75;;;0.82;;
21645;SDS011;10984;45.712;4.800;2023-04-01T08:25:33;1.33;;;0.50;;
21645;SDS011;10984;45.712;4.800;2023-04-01T08:33:37;4.18;;;0.50;;
21645;SDS011;10984;45.712;4.800;2023-04-01T08:39:09;1.83;;;0.40;;
21645;SDS011;10984;45.712;4.800;2023-04-01T08:44:49;3.67;;;0.75;;
21645;SDS011;10984;45.712;4.800;2023-04-01T09:02:23;3.33;;;0.70;;
21645;SDS011;10984;45.712;4.800;2023-04-01T09:25:58;2.45;;;0.45;;
21645;SDS011;10984;45.712;4.800;2023-04-01T09:51:26;2.83;;;0.20;;
21645;SDS011;10984;45.712;4.800;2023-04-01T09:54:13;3.13;;;0.40;;
21645;SDS011;10984;45.712;4.800;2023-04-01T10:09:01;2.92;;;0.47;;
21645;SDS011;10984;45.712;4.800;2023-04-01T10:32:22;1.80;;;0.40;;
21645;SDS011;10984;45.712;4.800;2023-04-01T11:15:19;0.93;;;0.30;;
21645;SDS011;10984;45.712;4.800;2023-04-01T12:32:03;1.52;;;0.30;;
21645;SDS011;10984;45.712;4.800;2023-04-01T12:48:51;1.27;;;0.20;;
21645;SDS011;10984;45.712;4.800;2023-04-01T13:00:53;1.52;;;0.30;;
21645;SDS011;10984;45.712;4.800;2023-04-01T13:27:33;1.15;;;0.43;;
21645;SDS011;10984;45.712;4.800;2023-04-01T13:44:50;3.13;;;0.20;;
21645;SDS011;10984;45.712;4.800;2023-04-01T13:53:34;1.50;;;0.40;;
21645;SDS011;10984;45.712;4.800;2023-04-01T14:50:39;1.10;;;0.15;;
21645;SDS011;10984;45.712;4.800;2023-04-01T14:55:56;2.35;;;0.25;;
21645;SDS011;10984;45.712;4.800;2023-04-01T14:58:25;1.35;;;0.30;;
21645;SDS011;10984;45.712;4.800;2023-04-01T15:44:32;0.65;;;0.30;;
21645;SDS011;10984;45.712;4.800;2023-04-01T16:37:17;1.98;;;0.90;;
21645;SDS011;10984;45.712;4.800;2023-04-01T16:42:51;2.40;;;1.17;;
21645;SDS011;10984;45.712;4.800;2023-04-01T16:51:55;5.03;;;1.30;;
21645;SDS011;10984;45.712;4.800;2023-04-01T16:57:30;2.75;;;1.02;;
21645;SDS011;10984;45.712;4.800;2023-04-01T17:02:57;4.68;;;1.45;;
21645;SDS011;10984;45.712;4.800;2023-04-01T17:29:06;2.50;;;0.95;;
21645;SDS011;10984;45.712;4.800;2023-04-01T17:31:46;3.10;;;1.27;;
21645;SDS011;10984;45.712;4.800;2023-04-01T18:27:38;3.05;;;1.70;;
21645;SDS011;10984;45.712;4.800;2023-04-01T18:30:12;3.88;;;1.90;;
21645;SDS011;10984;45.712;4.800;2023-04-01T18:38:30;12.50;;;4.85;;
21645;SDS011;10984;45.712;4.800;2023-04-01T18:43:48;7.78;;;3.80;;
21645;SDS011;10984;45.712;4.800;2023-04-01T19:09:53;4.18;;;2.50;;
21645;SDS011;10984;45.712;4.800;2023-04-01T20:07:57;5.43;;;2.60;;
21645;SDS011;10984;45.712;4.800;2023-04-01T20:22:22;6.22;;;2.25;;
21645;SDS011;10984;45.712;4.800;2023-04-01T20:42:13;4.22;;;2.63;;
21645;SDS011;10984;45.712;4.800;2023-04-01T20:45:04;4.78;;;2.80;;
21645;SDS011;10984;45.712;4.800;2023-04-01T20:53:43;5.45;;;3.10;;
21645;SDS011;10984;45.712;4.800;2023-04-01T21:54:48;7.05;;;3.10;;
21645;SDS011;10984;45.712;4.800;2023-04-01T22:18:49;3.00;;;1.30;;
21645;SDS011;10984;45.712;4.800;2023-04-01T22:30:30;2.83;;;0.95;;
21645;SDS011;10984;45.712;4.800;2023-04-01T23:05:08;1.23;;;0.50;;
21645;SDS011;10984;45.712;4.800;2023-04-01T23:10:41;1.33;;;0.57;;
21645;SDS011;10984;45.712;4.800;2023-04-01T23:13:14;2.55;;;0.73;;
21645;SDS011;10984;45.712;4.800;2023-04-01T23:15:44;0.95;;;0.50;;
21645;SDS011;10984;45.712;4.800;2023-04-01T23:18:13;4.32;;;0.70;;
21645;SDS011;10984;45.712;4.800;2023-04-01T23:29:41;2.65;;;0.90;;
21645;SDS011;10984;45.712;4.800;2023-04-01T23:34:53;3.10;;;0.95;;
21645;SDS011;10984;45.712;4.800;2023-04-01T23:37:22;1.63;;;0.65;;
21645;SDS011;10984;45.712;4.800;2023-04-01T23:39:50;3.10;;;1.48;;
21645;SDS011;10984;45.712;4.800;2023-04-01T23:45:19;3.33;;;0.75;;
21645;SDS011;10984;45.712;4.800;2023-04-01T23:47:45;2.47;;;1.10;;
21645;SDS011;10984;45.712;4.800;2023-04-01T23:50:16;1.27;;;0.60;;
21645;SDS011;10984;45.712;4.800;2023-04-01T23:55:40;1.90;;;0.80;;
